Fairfield, Alabama
Current Conditions -  °F | °C
As of 8:36 PM on Sunday 25 Jan 2015 (Local Time) from KBHM Reporting Station
Overcast Overcast  
Wind Chill: 40°   Ceiling: 6500
Heat Index: 47°   Visibility: 10mi
Dew Point: 41°   Wind: 16mph
Humidity: 80%   Direction: 310°NW
Pressure: 29.83"   Gusts: 25mph
Location:  33.49°N, 86.91°W
Report Text: KBHM 260236Z 31014G22KT 10SM FEW024 BKN065 OVC100 08/05 A2983 RMK AO2 WSHFT 0216 T00830050
Loading
Personal Weather Stations






























Interactive Weather Map New forecast layout! Learn more

10-Day Weather Forecast

Advertisements
Track Severe Weather on mobile